createdAt,value
2017-06-10T03:31:16.315Z,16.80
2017-06-10T03:33:43.968Z,16.80
2017-06-10T03:36:11.948Z,16.70
2017-06-10T03:38:39.605Z,16.70
2017-06-10T03:41:07.931Z,16.50
2017-06-10T03:43:35.596Z,16.30
2017-06-10T03:46:03.232Z,16.60
2017-06-10T03:48:30.883Z,16.70
2017-06-10T03:50:58.535Z,16.80
2017-06-10T03:53:26.197Z,16.60
2017-06-10T03:55:53.850Z,16.50
2017-06-10T03:58:21.513Z,16.60
2017-06-10T04:00:49.144Z,16.30
2017-06-10T04:03:17.884Z,16.50
2017-06-10T04:05:45.535Z,16.40
2017-06-10T04:08:13.186Z,16.50
2017-06-10T04:10:40.900Z,16.60
2017-06-10T04:13:08.546Z,16.70
2017-06-10T04:15:36.213Z,16.80
2017-06-10T04:18:03.871Z,16.80
2017-06-10T04:20:31.885Z,16.70
2017-06-10T04:22:59.586Z,16.70
2017-06-10T04:25:27.224Z,16.80
2017-06-10T04:27:54.893Z,16.80
2017-06-10T04:30:22.548Z,16.90
2017-06-10T04:32:50.210Z,17.00
2017-06-10T04:35:17.847Z,17.10
2017-06-10T04:37:45.500Z,17.10
2017-06-10T04:40:13.912Z,17.10
2017-06-10T04:42:41.953Z,17.00
2017-06-10T04:45:10.356Z,17.20
2017-06-10T04:47:37.992Z,17.20
2017-06-10T04:50:06.903Z,17.00
2017-06-10T04:52:34.549Z,17.00
2017-06-10T04:55:03.092Z,17.20
2017-06-10T04:57:30.735Z,17.20
2017-06-10T04:59:58.400Z,17.00
2017-06-10T05:02:26.057Z,17.10
2017-06-10T05:04:53.711Z,17.40
2017-06-10T05:07:21.384Z,17.50
2017-06-10T05:09:49.016Z,17.60
2017-06-10T05:12:16.692Z,17.50
2017-06-10T05:14:44.373Z,17.40
2017-06-10T05:17:12.029Z,17.60
2017-06-10T05:19:39.769Z,17.40
2017-06-10T05:22:07.834Z,17.10
2017-06-10T05:24:35.522Z,17.00
2017-06-10T05:27:03.168Z,16.60
2017-06-10T05:29:31.008Z,16.70
2017-06-10T05:31:59.426Z,17.20
2017-06-10T05:34:27.083Z,17.20
2017-06-10T05:36:54.725Z,17.30
2017-06-10T05:39:22.492Z,17.40
2017-06-10T05:41:50.160Z,17.40
2017-06-10T05:44:18.162Z,17.40
2017-06-10T05:46:45.810Z,17.60
2017-06-10T05:49:13.462Z,17.80
2017-06-10T05:51:41.120Z,17.80
2017-06-10T05:54:08.781Z,17.80
2017-06-10T05:56:36.448Z,17.40
2017-06-10T05:59:04.119Z,17.60
2017-06-10T06:01:31.798Z,17.80
2017-06-10T06:03:59.442Z,18.10
2017-06-10T06:06:27.109Z,18.30
2017-06-10T06:08:54.957Z,18.50
2017-06-10T06:11:22.904Z,18.40
2017-06-10T06:13:51.328Z,18.50
2017-06-10T06:16:18.991Z,18.50
2017-06-10T06:18:46.661Z,18.70
2017-06-10T06:21:14.302Z,18.60
2017-06-10T06:23:41.952Z,18.80
2017-06-10T06:26:09.594Z,19.20
2017-06-10T06:28:38.016Z,19.80
2017-06-10T06:31:05.711Z,19.80
2017-06-10T06:33:33.375Z,19.80
2017-06-10T06:36:01.034Z,19.90
2017-06-10T06:38:29.020Z,20.10
2017-06-10T06:40:57.440Z,20.70
2017-06-10T06:43:25.113Z,20.60
2017-06-10T06:45:52.860Z,20.70
2017-06-10T06:48:20.528Z,20.50
2017-06-10T06:50:48.195Z,20.90
2017-06-10T06:53:16.336Z,21.00
2017-06-10T06:55:44.327Z,21.30
2017-06-10T06:58:11.985Z,21.20
2017-06-10T07:00:39.681Z,20.90
2017-06-10T07:03:07.379Z,20.60
2017-06-10T07:05:35.784Z,20.90
2017-06-10T07:08:03.453Z,20.90
2017-06-10T07:10:31.105Z,21.40
2017-06-10T07:12:58.745Z,21.20
2017-06-10T07:15:27.165Z,21.30
2017-06-10T07:17:55.192Z,21.30
2017-06-10T07:20:23.738Z,21.70
2017-06-10T07:22:51.383Z,21.70
2017-06-10T07:25:19.089Z,21.70
2017-06-10T07:27:46.735Z,22.30
2017-06-10T07:30:14.403Z,22.40
2017-06-10T07:32:42.056Z,22.70
2017-06-10T07:35:09.746Z,23.30
2017-06-10T07:37:38.152Z,23.00
2017-06-10T07:40:06.771Z,22.90
2017-06-10T07:42:35.312Z,23.50
2017-06-10T07:45:03.009Z,23.40
2017-06-10T07:47:30.697Z,23.70
2017-06-10T07:49:58.386Z,23.70
2017-06-10T07:52:27.171Z,24.70
2017-06-10T07:54:55.592Z,25.00
2017-06-10T07:57:23.379Z,25.00
2017-06-10T07:59:51.419Z,25.00
2017-06-10T08:02:19.086Z,24.70
2017-06-10T08:04:46.735Z,24.10
2017-06-10T08:07:14.725Z,24.30
2017-06-10T08:09:42.367Z,24.40
2017-06-10T08:12:10.026Z,25.10
2017-06-10T08:14:37.700Z,25.30
2017-06-10T08:17:05.348Z,25.70
2017-06-10T08:19:33.516Z,26.70
2017-06-10T08:22:01.345Z,27.50
2017-06-10T08:24:28.992Z,27.60
2017-06-10T08:26:56.657Z,27.10
2017-06-10T08:29:24.384Z,27.30
2017-06-10T08:31:52.055Z,27.60
2017-06-10T08:34:20.005Z,27.70
2017-06-10T08:36:47.802Z,27.60
2017-06-10T08:39:15.497Z,27.40
2017-06-10T08:41:43.160Z,26.90
2017-06-10T08:44:10.836Z,28.00
2017-06-10T08:46:39.626Z,27.90
2017-06-10T08:49:08.038Z,26.30
2017-06-10T08:51:36.000Z,26.30
2017-06-10T08:54:03.968Z,27.70
2017-06-10T08:56:31.643Z,29.50
2017-06-10T08:58:59.301Z,30.90
2017-06-10T09:01:27.356Z,31.10
2017-06-10T09:03:55.140Z,33.10
2017-06-10T09:06:22.805Z,32.60
2017-06-10T09:08:50.859Z,32.80
2017-06-10T09:11:18.500Z,32.10
2017-06-10T09:13:46.159Z,32.90
2017-06-10T09:16:14.622Z,29.40
2017-06-10T09:18:42.260Z,29.30
2017-06-10T09:21:09.930Z,28.60
2017-06-10T09:23:37.563Z,27.80
2017-06-10T09:26:05.258Z,26.40
2017-06-10T09:28:32.920Z,27.40
2017-06-10T09:31:00.577Z,31.70
2017-06-10T09:33:28.220Z,35.10
2017-06-10T09:35:56.770Z,36.60
2017-06-10T09:38:24.433Z,38.60
2017-06-10T09:40:52.144Z,41.00
2017-06-10T09:43:19.883Z,42.60
2017-06-10T09:45:47.570Z,42.50
2017-06-10T09:48:15.236Z,42.30
2017-06-10T09:50:42.888Z,39.30
2017-06-10T09:53:10.925Z,36.20
2017-06-10T09:55:38.595Z,32.80
2017-06-10T09:58:06.513Z,30.10
2017-06-10T10:00:34.958Z,27.40
2017-06-10T10:03:02.611Z,27.30
2017-06-10T10:05:30.292Z,27.70
2017-06-10T10:07:57.964Z,30.70
2017-06-10T10:10:25.643Z,33.20
2017-06-10T10:12:53.436Z,36.10
2017-06-10T10:15:21.085Z,37.60
2017-06-10T10:17:48.749Z,37.00
2017-06-10T10:20:16.402Z,35.20
2017-06-10T10:22:44.847Z,32.70
2017-06-10T10:25:13.880Z,32.70
2017-06-10T10:27:42.056Z,33.80
2017-06-10T10:30:09.705Z,35.20
2017-06-10T10:32:37.504Z,35.20
2017-06-10T10:35:05.644Z,35.90
2017-06-10T10:37:34.183Z,31.60
2017-06-10T10:40:01.868Z,31.60
2017-06-10T10:42:29.887Z,30.90
2017-06-10T10:44:57.545Z,30.70
2017-06-10T10:47:25.236Z,31.00
2017-06-10T10:49:53.276Z,30.60
2017-06-10T10:52:20.926Z,30.30
2017-06-10T10:54:49.355Z,30.20
2017-06-10T10:57:17.438Z,30.20
2017-06-10T10:59:45.091Z,31.00
2017-06-10T11:02:12.740Z,31.10
2017-06-10T11:04:40.790Z,30.40
2017-06-10T11:07:08.436Z,29.40
2017-06-10T11:09:36.085Z,28.70
2017-06-10T11:12:04.059Z,27.60
2017-06-10T11:14:31.713Z,27.50
2017-06-10T11:16:59.461Z,28.40
2017-06-10T11:19:27.561Z,29.30
2017-06-10T11:21:55.970Z,28.00
2017-06-10T11:24:23.652Z,28.00
2017-06-10T11:26:51.324Z,27.30
2017-06-10T11:29:18.996Z,27.70
2017-06-10T11:31:46.677Z,27.30
2017-06-10T11:34:15.149Z,27.20
2017-06-10T11:36:43.169Z,27.10
2017-06-10T11:39:10.832Z,27.10
2017-06-10T11:41:38.505Z,26.50
2017-06-10T11:44:06.158Z,26.10
2017-06-10T11:46:34.193Z,26.00
2017-06-10T11:49:01.918Z,26.50
2017-06-10T11:51:29.548Z,25.90
2017-06-10T11:53:57.205Z,25.90
2017-06-10T11:56:25.002Z,26.20
2017-06-10T11:58:52.683Z,27.10
2017-06-10T12:01:20.329Z,27.80
2017-06-10T12:03:48.345Z,28.50
2017-06-10T12:06:15.993Z,28.80
2017-06-10T12:08:44.432Z,28.10
2017-06-10T12:11:12.105Z,28.10
2017-06-10T12:13:39.753Z,27.90
2017-06-10T12:16:07.407Z,27.50
2017-06-10T12:18:35.066Z,27.70
2017-06-10T12:21:02.785Z,27.40
2017-06-10T12:23:30.435Z,27.10
2017-06-10T12:25:58.402Z,27.90
2017-06-10T12:28:26.053Z,28.90
2017-06-10T12:30:53.706Z,29.50
2017-06-10T12:33:21.377Z,29.30
2017-06-10T12:35:49.061Z,28.70
2017-06-10T12:38:16.743Z,28.10
2017-06-10T12:40:44.410Z,27.10
2017-06-10T12:43:12.487Z,27.10
2017-06-10T12:45:40.161Z,27.30
2017-06-10T12:48:08.121Z,27.10
2017-06-10T12:50:35.812Z,27.30
2017-06-10T12:53:03.488Z,26.80
2017-06-10T12:55:31.164Z,26.90
2017-06-10T12:57:58.804Z,26.60
2017-06-10T13:00:26.481Z,26.20
2017-06-10T13:02:54.152Z,26.30
2017-06-10T13:05:22.142Z,26.00
2017-06-10T13:07:50.591Z,26.90
2017-06-10T13:10:18.255Z,26.90
2017-06-10T13:12:45.913Z,27.20
2017-06-10T13:15:13.618Z,27.30
2017-06-10T13:17:41.287Z,27.30
2017-06-10T13:20:09.019Z,27.80
2017-06-10T13:22:37.130Z,27.70
2017-06-10T13:25:04.809Z,27.60
2017-06-10T13:27:32.461Z,28.20
2017-06-10T13:30:00.129Z,28.50
2017-06-10T13:32:27.792Z,28.50
2017-06-10T13:34:55.493Z,28.50
2017-06-10T13:37:23.179Z,27.40
2017-06-10T13:39:51.944Z,26.00
2017-06-10T13:42:19.580Z,25.90
2017-06-10T13:44:47.240Z,25.30
2017-06-10T13:47:15.197Z,25.40
2017-06-10T13:49:42.872Z,25.40
2017-06-10T13:52:10.531Z,25.80
2017-06-10T13:54:38.569Z,26.00
2017-06-10T13:57:06.232Z,25.70
2017-06-10T13:59:33.876Z,26.00
2017-06-10T14:02:02.675Z,25.00
2017-06-10T14:04:30.329Z,25.00
2017-06-10T14:06:58.741Z,25.70
2017-06-10T14:09:26.836Z,25.70
2017-06-10T14:11:54.502Z,26.10
2017-06-10T14:14:22.164Z,26.10
2017-06-10T14:16:50.237Z,26.10
2017-06-10T14:19:17.875Z,25.40
2017-06-10T14:21:45.527Z,24.70
2017-06-10T14:24:13.605Z,24.70
2017-06-10T14:26:41.357Z,25.50
2017-06-10T14:29:09.014Z,25.60
2017-06-10T14:31:37.084Z,25.90
2017-06-10T14:34:04.747Z,25.20
2017-06-10T14:36:32.424Z,24.80
2017-06-10T14:39:00.382Z,25.20
2017-06-10T14:41:28.055Z,25.70
2017-06-10T14:43:55.696Z,25.80
2017-06-10T14:46:23.773Z,25.00
2017-06-10T14:48:51.436Z,25.00
2017-06-10T14:51:19.105Z,25.40
2017-06-10T14:53:47.137Z,25.70
2017-06-10T14:56:15.570Z,25.50
2017-06-10T14:58:43.234Z,25.50
2017-06-10T15:01:11.258Z,25.90
2017-06-10T15:03:39.689Z,25.60
2017-06-10T15:06:07.325Z,25.60
2017-06-10T15:08:35.382Z,25.50
2017-06-10T15:11:03.035Z,25.50
2017-06-10T15:13:31.456Z,25.00
2017-06-10T15:15:59.440Z,25.00
2017-06-10T15:18:27.087Z,24.80
2017-06-10T15:20:54.741Z,25.20
2017-06-10T15:23:22.797Z,25.70
2017-06-10T15:25:50.452Z,25.60
2017-06-10T15:28:18.102Z,25.60
2017-06-10T15:30:46.085Z,25.30
2017-06-10T15:33:13.746Z,25.30
2017-06-10T15:35:41.460Z,25.20
2017-06-10T15:38:09.473Z,25.40
2017-06-10T15:40:37.868Z,25.30
2017-06-10T15:43:05.726Z,25.30
2017-06-10T15:45:33.792Z,25.20
2017-06-10T15:48:01.465Z,25.50
2017-06-10T15:50:29.138Z,25.60
2017-06-10T15:52:57.129Z,25.70
2017-06-10T15:55:24.781Z,25.60
2017-06-10T15:57:52.859Z,25.50
2017-06-10T16:00:21.231Z,25.20
2017-06-10T16:02:48.874Z,24.90
2017-06-10T16:05:16.550Z,24.80
2017-06-10T16:07:44.248Z,24.80
2017-06-10T16:10:11.926Z,25.30
2017-06-10T16:12:39.916Z,25.40
2017-06-10T16:15:07.577Z,25.10
2017-06-10T16:17:35.236Z,24.50
2017-06-10T16:20:04.055Z,25.00
2017-06-10T16:22:31.695Z,25.00
2017-06-10T16:25:00.146Z,25.40
2017-06-10T16:27:28.144Z,25.30
2017-06-10T16:29:55.797Z,25.20
2017-06-10T16:32:24.198Z,25.20
2017-06-10T16:34:52.544Z,25.10
2017-06-10T16:37:20.979Z,25.40
2017-06-10T16:39:48.643Z,25.40
2017-06-10T16:42:16.667Z,25.50
2017-06-10T16:44:45.109Z,25.60
2017-06-10T16:47:12.775Z,25.60
2017-06-10T16:49:40.773Z,25.60
2017-06-10T16:52:09.222Z,25.80
2017-06-10T16:54:36.866Z,25.80
2017-06-10T16:57:04.527Z,26.10
2017-06-10T16:59:32.187Z,26.20
2017-06-10T17:01:59.831Z,26.10
2017-06-10T17:04:27.535Z,26.10
2017-06-10T17:06:55.184Z,26.10
2017-06-10T17:09:22.840Z,26.10
2017-06-10T17:11:50.469Z,26.10
2017-06-10T17:14:18.119Z,26.20
2017-06-10T17:16:45.788Z,26.10
2017-06-10T17:19:13.845Z,26.10
2017-06-10T17:21:42.260Z,26.00
2017-06-10T17:24:09.910Z,26.00
2017-06-10T17:26:39.309Z,25.90
2017-06-10T17:29:07.051Z,25.40
2017-06-10T17:31:35.478Z,25.50
2017-06-10T17:34:03.127Z,25.50
2017-06-10T17:36:30.801Z,25.60
2017-06-10T17:38:58.473Z,25.50
2017-06-10T17:41:26.502Z,25.30
2017-06-10T17:43:54.142Z,25.20
2017-06-10T17:46:22.554Z,25.30
2017-06-10T17:48:50.224Z,25.30
2017-06-10T17:51:17.884Z,25.40
2017-06-10T17:53:45.557Z,25.50
2017-06-10T17:56:13.285Z,25.50
2017-06-10T17:58:40.955Z,25.20
2017-06-10T18:01:08.605Z,25.10
2017-06-10T18:03:37.111Z,25.10
2017-06-10T18:06:04.769Z,25.10
2017-06-10T18:08:32.741Z,25.00
2017-06-10T18:11:01.418Z,25.10
2017-06-10T18:13:29.105Z,25.20
2017-06-10T18:15:56.801Z,25.10
2017-06-10T18:18:24.460Z,25.10
2017-06-10T18:20:52.116Z,24.90
2017-06-10T18:23:19.764Z,24.90
2017-06-10T18:25:53.165Z,24.90
2017-06-10T18:28:20.830Z,24.80
2017-06-10T18:30:54.384Z,24.70
2017-06-10T18:33:22.043Z,24.60
2017-06-10T18:35:49.749Z,24.60
2017-06-10T18:38:17.788Z,24.60
2017-06-10T18:40:45.466Z,24.70
2017-06-10T18:43:13.210Z,24.70
2017-06-10T18:45:41.315Z,24.60
2017-06-10T18:48:08.965Z,24.60
2017-06-10T18:50:36.637Z,24.50
2017-06-10T18:53:04.654Z,24.50
2017-06-10T18:55:33.087Z,24.40
2017-06-10T18:58:00.760Z,24.30
2017-06-10T19:00:28.901Z,24.30
2017-06-10T19:02:56.544Z,24.30
2017-06-10T19:05:24.282Z,24.20
2017-06-10T19:07:52.276Z,24.10
2017-06-10T19:10:20.697Z,23.90
2017-06-10T19:12:48.349Z,23.90
2017-06-10T19:15:16.397Z,23.80
2017-06-10T19:17:44.057Z,23.80
2017-06-10T19:20:11.706Z,23.70
2017-06-10T19:22:40.540Z,23.60
2017-06-10T19:25:08.197Z,23.60
2017-06-10T19:27:35.871Z,23.60
2017-06-10T19:30:03.859Z,23.50
2017-06-10T19:32:31.697Z,23.40
2017-06-10T19:34:59.362Z,23.30
2017-06-10T19:37:27.401Z,23.20
2017-06-10T19:39:55.064Z,23.10
2017-06-10T19:42:22.716Z,23.00
2017-06-10T19:44:50.701Z,22.90
2017-06-10T19:47:18.381Z,22.80
2017-06-10T19:49:46.068Z,22.70
2017-06-10T19:52:14.069Z,22.70
2017-06-10T19:54:42.495Z,22.70
2017-06-10T19:57:10.137Z,22.70
2017-06-10T19:59:38.214Z,22.70
2017-06-10T20:02:05.883Z,22.60
2017-06-10T20:04:33.557Z,22.50
2017-06-10T20:07:01.601Z,22.50
2017-06-10T20:09:29.335Z,22.40
2017-06-10T20:11:57.781Z,22.30
2017-06-10T20:14:25.826Z,22.30
2017-06-10T20:26:38.889Z,22.20
2017-06-10T20:29:07.318Z,21.40
2017-06-10T20:31:35.046Z,21.40
2017-06-10T20:34:03.109Z,21.60
2017-06-10T20:36:30.798Z,21.70
2017-06-10T20:38:58.469Z,21.70
2017-06-10T20:41:26.509Z,21.60
2017-06-10T20:43:54.170Z,21.60
2017-06-10T20:46:21.839Z,21.60
2017-06-10T20:48:49.873Z,21.60
2017-06-10T20:51:17.540Z,21.60
2017-06-10T20:53:46.006Z,21.60
2017-06-10T20:56:14.002Z,21.60
2017-06-10T20:58:42.422Z,21.60
2017-06-10T21:01:10.078Z,21.50
2017-06-10T21:03:38.100Z,21.50
2017-06-10T21:06:06.515Z,21.30
2017-06-10T21:08:34.185Z,21.30
2017-06-10T21:11:02.224Z,21.30
2017-06-10T21:13:30.686Z,21.20
2017-06-10T21:15:58.343Z,21.20
2017-06-10T21:18:26.342Z,21.10
2017-06-10T21:20:54.773Z,21.10
2017-06-10T21:23:22.442Z,21.00
2017-06-10T21:25:50.474Z,21.10
2017-06-10T21:28:18.140Z,21.10
